Pegasus Peta — V7HR7 — position and weather

sailwx.info

Track history (hours):
 
Tides and Currents Weather Stations Pressure Air Temp Water Temp Dewpoint Dewpoint Depression Visibility Wind Speed Wind Dir Waves Ship Positions

Pegasus Peta

Last reported at 2018-Feb-18 23:46 UTC. Time now 2018-Feb-20 11:31 UTC.
Position N 34°30' E 130°04'.

Length 146 m; draft 7.5 m.

Type: Cargo ship. MMSI: 538005864.

Date/timePositionNaut miles runAvg speedWind from/ knotsBaromVisibWave heightAir tempDewpointWater temp
2018-Feb-18 23:46N 34°30' E 130°04'416.8
2018-Feb-18 23:30N 34°27' E 130°08'816.7
2018-Feb-18 23:00N 34°23' E 130°16'816.7
2018-Feb-18 22:31N 34°17' E 130°24'816.6
2018-Feb-18 22:00N 34°12' E 130°32'816.7
2018-Feb-18 21:31N 34°07' E 130°40'816.4
2018-Feb-18 21:01N 34°03' E 130°48'612.3
2018-Feb-18 20:30N 33°57' E 130°52'4 7.4
2018-Feb-18 20:01N 33°55' E 130°56'510.6
2018-Feb-18 19:30N 33°58' E 131°01'815.2
2018-Feb-18 19:00N 33°54' E 131°09'815.4
2018-Feb-18 18:30N 33°51' E 131°17'816.2
2018-Feb-18 18:00N 33°50' E 131°27'816.1
2018-Feb-18 17:30N 33°48' E 131°36'714.6
2018-Feb-18 17:00N 33°45' E 131°44'815.4
2018-Feb-18 16:30N 33°38' E 131°49'815.4
2018-Feb-18 16:00N 33°31' E 131°53'815.7
2018-Feb-18 15:30N 33°24' E 131°57'815.3
2018-Feb-18 15:00N 33°17' E 132°02'816.0
2018-Feb-18 14:31N 33°11' E 132°07'14113.0
2018-Feb-18 03:39N 33°48' E 134°50'417.3
2018-Feb-18 03:26N 33°51' E 134°52'817.2
2018-Feb-18 03:00N 33°58' E 134°55'816.9
2018-Feb-18 02:31N 34°05' E 135°01'816.0
2018-Feb-18 02:00N 34°12' E 135°05'3 5.2
2018-Feb-18 01:29N 34°12' E 135°09'0 0.0
2018-Feb-18 00:59N 34°12' E 135°09'0 0.0
2018-Feb-18 00:29N 34°12' E 135°09'0 0.0
2018-Feb-17 23:59N 34°12' E 135°09'0 0.0
2018-Feb-17 23:29N 34°12' E 135°09'0 0.0
2018-Feb-17 22:59N 34°12' E 135°09'1 2.0
2018-Feb-17 22:30N 34°13' E 135°08'2 3.6
2018-Feb-17 21:59N 34°12' E 135°06'0 0.1
2018-Feb-17 21:29N 34°12' E 135°06'0 0.0
2018-Feb-17 20:59N 34°12' E 135°06'0 0.0
2018-Feb-17 20:29N 34°12' E 135°06'0 0.1
2018-Feb-17 19:59N 34°12' E 135°06'0 0.1
2018-Feb-17 19:29N 34°12' E 135°06'0 0.0
2018-Feb-17 18:59N 34°12' E 135°06'0 0.0
2018-Feb-17 18:29N 34°12' E 135°06'0 0.0
2018-Feb-17 17:59N 34°12' E 135°06'0 0.0
2018-Feb-17 17:29N 34°12' E 135°06'0 0.0
2018-Feb-17 16:59N 34°12' E 135°06'0 0.0
2018-Feb-17 16:29N 34°12' E 135°06'0 0.0
2018-Feb-17 15:59N 34°12' E 135°06'0 0.0
2018-Feb-17 15:29N 34°12' E 135°06'0 0.1
2018-Feb-17 14:59N 34°12' E 135°06'3 5.8
2018-Feb-17 14:30N 34°09' E 135°04'713.8
2018-Feb-17 14:01N 34°03' E 135°02'713.4
2018-Feb-17 13:31N 33°56' E 135°01'713.2
2018-Feb-17 13:00N 33°50' E 135°03'713.9
2018-Feb-17 12:30N 33°44' E 135°08'1014.2
2018-Feb-17 11:48N 33°37' E 135°17'7613.6
2018-Feb-17 06:13N 34°02' E 136°43'3613.2
2018-Feb-17 03:29N 34°37' E 136°55'816.8
2018-Feb-17 03:00N 34°43' E 136°48'816.6
2018-Feb-17 02:30N 34°51' E 136°46'815.8
2018-Feb-17 02:00N 34°59' E 136°47'3 5.1
2018-Feb-17 01:30N 35°02' E 136°47'0 0.0
2018-Feb-17 00:56N 35°02' E 136°47'0 0.0
2018-Feb-17 00:29N 35°02' E 136°47'0 0.0
2018-Feb-16 23:56N 35°02' E 136°47'0 0.0
2018-Feb-16 23:29N 35°02' E 136°47'0 0.0
2018-Feb-16 22:59N 35°02' E 136°47'0 0.0
2018-Feb-16 22:26N 35°02' E 136°47'0 0.0
2018-Feb-16 21:56N 35°02' E 136°47'0 0.0
2018-Feb-16 21:26N 35°02' E 136°47'0 0.0
2018-Feb-16 20:59N 35°02' E 136°47'0 0.0
2018-Feb-16 20:26N 35°02' E 136°47'0 0.0
2018-Feb-16 19:59N 35°02' E 136°47'0 0.0
2018-Feb-16 19:26N 35°02' E 136°47'0 0.0
2018-Feb-16 18:59N 35°02' E 136°47'0 0.0
2018-Feb-16 18:29N 35°02' E 136°47'0 0.0
2018-Feb-16 17:56N 35°02' E 136°47'0 0.0
2018-Feb-16 17:26N 35°02' E 136°47'0 0.0
2018-Feb-16 16:59N 35°02' E 136°47'0 0.8
2018-Feb-16 16:30N 35°02' E 136°48'4 7.5
2018-Feb-16 16:01N 34°58' E 136°46'815.5
2018-Feb-16 15:31N 34°50' E 136°47'815.1
2018-Feb-16 15:00N 34°43' E 136°50'714.8
2018-Feb-16 14:30N 34°37' E 136°55'713.4
2018-Feb-16 14:00N 34°33' E 137°02'713.4
2018-Feb-16 13:30N 34°33' E 137°10'815.0
2018-Feb-16 13:00N 34°33' E 137°19'2115.6
2018-Feb-16 11:39N 34°33' E 137°44'315.6
2018-Feb-16 11:27N 34°33' E 137°48'715.0
2018-Feb-16 11:00N 34°33' E 137°56'814.6
2018-Feb-16 10:29N 34°33' E 138°06'714.0
2018-Feb-16 09:58N 34°33' E 138°14'714.4
2018-Feb-16 09:30N 34°37' E 138°21'714.8
2018-Feb-16 09:00N 34°43' E 138°26'714.8
2018-Feb-16 08:30N 34°50' E 138°29'815.4
2018-Feb-16 08:00N 34°57' E 138°32'5 9.9
2018-Feb-16 07:30N 35°02' E 138°31'0 0.7
2018-Feb-16 07:00N 35°02' E 138°31'0 0.0
2018-Feb-16 06:30N 35°02' E 138°31'0 0.0
2018-Feb-16 06:00N 35°02' E 138°31'0 0.0
2018-Feb-16 05:30N 35°02' E 138°31'0 0.0
2018-Feb-16 04:54N 35°02' E 138°31'0 0.0
2018-Feb-16 04:30N 35°02' E 138°31'0 0.0
2018-Feb-16 04:00N 35°02' E 138°31'0 0.0
2018-Feb-16 03:30N 35°02' E 138°31'0 0.0
2018-Feb-16 03:00N 35°02' E 138°31'1 1.8
2018-Feb-16 02:31N 35°02' E 138°31'1 1.1
2018-Feb-16 02:01N 35°02' E 138°32'0 0.2
2018-Feb-16 01:31N 35°02' E 138°32'0 0.0
2018-Feb-16 01:00N 35°02' E 138°32'0 0.0
2018-Feb-16 00:30N 35°02' E 138°32'0 0.0
2018-Feb-16 00:00N 35°02' E 138°32'0 0.0
2018-Feb-15 23:31N 35°02' E 138°32'0 0.0
2018-Feb-15 23:00N 35°02' E 138°32'0 0.0
2018-Feb-15 22:30N 35°02' E 138°32'0 0.0
2018-Feb-15 22:00N 35°02' E 138°32'0 0.0
2018-Feb-15 21:30N 35°02' E 138°32'0 0.0
2018-Feb-15 21:00N 35°02' E 138°32'0 0.0
2018-Feb-15 20:30N 35°02' E 138°32'0 0.0
2018-Feb-15 20:01N 35°02' E 138°32'0 0.1
2018-Feb-15 19:29N 35°02' E 138°32'0 0.0
2018-Feb-15 19:01N 35°02' E 138°32'0 0.0
2018-Feb-15 18:30N 35°02' E 138°32'0 0.0
2018-Feb-15 18:00N 35°02' E 138°32'0 0.0
2018-Feb-15 17:31N 35°02' E 138°32'0 0.0
2018-Feb-15 17:00N 35°02' E 138°32'0 0.0
2018-Feb-15 16:30N 35°02' E 138°32'0 0.0
2018-Feb-15 16:00N 35°02' E 138°32'0 0.0
2018-Feb-15 15:30N 35°02' E 138°32'0 0.0
2018-Feb-15 15:01N 35°02' E 138°32'0 0.8
2018-Feb-15 14:30N 35°02' E 138°32'510.2
2018-Feb-15 14:00N 34°58' E 138°36'714.0
2018-Feb-15 13:30N 34°51' E 138°39'713.9
2018-Feb-15 13:00N 34°45' E 138°40'814.4
2018-Feb-15 12:29N 34°37' E 138°42'613.1
2018-Feb-15 12:00N 34°33' E 138°48'612.4
2018-Feb-15 11:30N 34°33' E 138°56'611.3
2018-Feb-15 11:01N 34°36' E 139°01'713.7
2018-Feb-15 10:30N 34°41' E 139°07'714.0
2018-Feb-15 10:00N 34°46' E 139°13'613.0
2018-Feb-15 09:30N 34°51' E 139°18'612.6
2018-Feb-15 09:00N 34°55' E 139°24'713.8
2018-Feb-15 08:31N 34°59' E 139°30'713.9
2018-Feb-15 08:00N 35°04' E 139°37'815.6
2018-Feb-15 07:30N 35°09' E 139°44'713.3
2018-Feb-15 07:00N 35°15' E 139°46'612.9
2018-Feb-15 06:31N 35°21' E 139°42'714.5
2018-Feb-15 06:01N 35°27' E 139°47'713.0
2018-Feb-15 05:31N 35°33' E 139°50'510.5
2018-Feb-15 05:01N 35°37' E 139°46'0 0.3
2018-Feb-15 04:27N 35°37' E 139°46'0 0.0
2018-Feb-15 03:57N 35°37' E 139°46'0 0.0
2018-Feb-15 02:48N 35°37' E 139°46'0 0.0
2018-Feb-15 01:15N 35°37' E 139°46'0 0.0
2018-Feb-15 00:51N 35°37' E 139°46'0 0.0
2018-Feb-15 00:27N 35°37' E 139°46'0 0.0
2018-Feb-14 22:57N 35°37' E 139°46'0 0.0
2018-Feb-14 22:21N 35°37' E 139°46'0 0.0
2018-Feb-14 21:58N 35°37' E 139°46'2 5.0
2018-Feb-14 21:28N 35°35' E 139°47'613.6
2018-Feb-14 21:00N 35°30' E 139°53'713.4
2018-Feb-14 20:31N 35°26' E 139°46'4 8.7
2018-Feb-14 20:00N 35°26' E 139°41'0 0.2
2018-Feb-14 19:30N 35°26' E 139°41'0 0.0
2018-Feb-14 19:00N 35°26' E 139°41'0 0.0
2018-Feb-14 18:30N 35°26' E 139°41'0 0.0
2018-Feb-14 18:00N 35°26' E 139°41'0 0.0
2018-Feb-14 17:30N 35°26' E 139°41'0 0.0
2018-Feb-14 16:57N 35°26' E 139°41'0 0.0
2018-Feb-14 16:30N 35°26' E 139°41'0 0.0
2018-Feb-14 16:00N 35°26' E 139°41'0 0.0
2018-Feb-14 15:30N 35°26' E 139°41'0 0.0
2018-Feb-14 15:00N 35°26' E 139°41'0 0.0
2018-Feb-14 14:27N 35°26' E 139°41'0 0.0
2018-Feb-14 14:00N 35°26' E 139°41'0 0.0
2018-Feb-14 13:30N 35°26' E 139°41'0 0.0
2018-Feb-14 13:00N 35°26' E 139°41'0 0.0
2018-Feb-14 12:30N 35°26' E 139°41'0 0.0
2018-Feb-14 12:00N 35°26' E 139°41'0 0.0
2018-Feb-14 11:27N 35°26' E 139°41'0 0.0
2018-Feb-14 11:00N 35°26' E 139°41'0 0.0
2018-Feb-14 10:24N 35°26' E 139°41'0 0.0
2018-Feb-14 10:00N 35°26' E 139°41'0 0.0
2018-Feb-14 09:30N 35°26' E 139°41'0 0.9
2018-Feb-14 09:01N 35°26' E 139°41'2 4.9
2018-Feb-14 08:30N 35°25' E 139°44'5 9.5
2018-Feb-14 08:01N 35°21' E 139°43'611.2
2018-Feb-14 07:30N 35°16' E 139°47'611.4
2018-Feb-14 07:00N 35°10' E 139°47'511.2
2018-Feb-14 06:30N 35°05' E 139°45'611.2
2018-Feb-14 06:00N 35°01' E 139°40'611.1
2018-Feb-14 05:30N 34°58' E 139°34'611.3
2018-Feb-14 04:59N 34°55' E 139°28'611.7
2018-Feb-14 04:28N 34°52' E 139°22'815.8
2018-Feb-14 03:59N 34°46' E 139°16'815.3
2018-Feb-14 03:28N 34°40' E 139°09'715.7
2018-Feb-14 03:00N 34°35' E 139°03'815.0
2018-Feb-14 02:30N 34°30' E 138°56'814.6
2018-Feb-14 01:56N 34°27' E 138°47'614.5
2018-Feb-14 01:29N 34°25' E 138°39'815.3
2018-Feb-14 00:59N 34°23' E 138°30'715.3
2018-Feb-14 00:31N 34°20' E 138°22'814.2
2018-Feb-13 23:56N 34°18' E 138°12'714.0
2018-Feb-13 23:25N 34°16' E 138°04'714.4
2018-Feb-13 22:55N 34°13' E 137°56'30114.0
2018-Feb-13 01:26N 33°15' E 132°01'716.6
2018-Feb-13 01:01N 33°21' E 131°57'916.4
2018-Feb-13 00:29N 33°29' E 131°53'816.1
2018-Feb-13 00:00N 33°36' E 131°48'816.2
2018-Feb-12 23:30N 33°43' E 131°44'815.0
2018-Feb-12 23:00N 33°46' E 131°36'815.9
2018-Feb-12 22:30N 33°48' E 131°26'815.6
2018-Feb-12 22:00N 33°50' E 131°17'815.3
2018-Feb-12 21:31N 33°53' E 131°09'714.5
2018-Feb-12 21:00N 33°57' E 131°02'611.3
2018-Feb-12 20:31N 33°55' E 130°56'611.8
2018-Feb-12 20:00N 33°59' E 130°50'714.4
2018-Feb-12 19:31N 34°05' E 130°45'815.5
2018-Feb-12 19:00N 34°09' E 130°38'815.4
2018-Feb-12 18:30N 34°14' E 130°30'815.6
2018-Feb-12 18:00N 34°18' E 130°23'815.7
2018-Feb-12 17:30N 34°23' E 130°15'816.0
2018-Feb-12 17:00N 34°28' E 130°07'815.9
2018-Feb-12 16:29N 34°33' E 129°59'  
2018-Feb-10 04:28N 37°41' E 122°08'715.0
2018-Feb-10 04:00N 37°41' E 121°59'815.1
2018-Feb-10 03:30N 37°41' E 121°49'815.2
2018-Feb-10 03:01N 37°41' E 121°40'714.6
2018-Feb-10 02:31N 37°39' E 121°31'611.9
2018-Feb-10 02:00N 37°35' E 121°25'2 3.4
2018-Feb-10 01:25N 37°35' E 121°23'0 0.1
2018-Feb-10 00:55N 37°35' E 121°23'0 0.0
2018-Feb-10 00:28N 37°35' E 121°23'0 0.1
2018-Feb-09 23:58N 37°35' E 121°23'0 0.1
2018-Feb-09 23:25N 37°35' E 121°23'0 0.0
2018-Feb-09 22:58N 37°35' E 121°23'0 0.1
2018-Feb-09 22:37N 37°35' E 121°23'20 2.0
2018-Feb-09 12:30N 37°54' E 121°31'815.9
2018-Feb-09 12:01N 38°01' E 121°33'  
Track history (hours):
 
Tides and Currents Weather Stations Pressure Air Temp Water Temp Dewpoint Dewpoint Depression Visibility Wind Speed Wind Dir Waves Ship Positions

Pegasus Peta

Last reported at 2018-Feb-18 23:46 UTC. Time now 2018-Feb-20 11:31 UTC.
Position N 34°30' E 130°04'.

Length 146 m; draft 7.5 m.

Type: Cargo ship. MMSI: 538005864.

Date/timePositionNaut miles runAvg speedWind from/ knotsBaromVisibWave heightAir tempDewpointWater temp
2018-Feb-18 23:46N 34°30' E 130°04'416.8
2018-Feb-18 23:30N 34°27' E 130°08'816.7
2018-Feb-18 23:00N 34°23' E 130°16'816.7
2018-Feb-18 22:31N 34°17' E 130°24'816.6
2018-Feb-18 22:00N 34°12' E 130°32'816.7
2018-Feb-18 21:31N 34°07' E 130°40'816.4
2018-Feb-18 21:01N 34°03' E 130°48'612.3
2018-Feb-18 20:30N 33°57' E 130°52'4 7.4
2018-Feb-18 20:01N 33°55' E 130°56'510.6
2018-Feb-18 19:30N 33°58' E 131°01'815.2
2018-Feb-18 19:00N 33°54' E 131°09'815.4
2018-Feb-18 18:30N 33°51' E 131°17'816.2
2018-Feb-18 18:00N 33°50' E 131°27'816.1
2018-Feb-18 17:30N 33°48' E 131°36'714.6
2018-Feb-18 17:00N 33°45' E 131°44'815.4
2018-Feb-18 16:30N 33°38' E 131°49'815.4
2018-Feb-18 16:00N 33°31' E 131°53'815.7
2018-Feb-18 15:30N 33°24' E 131°57'815.3
2018-Feb-18 15:00N 33°17' E 132°02'816.0
2018-Feb-18 14:31N 33°11' E 132°07'14113.0
2018-Feb-18 03:39N 33°48' E 134°50'417.3
2018-Feb-18 03:26N 33°51' E 134°52'817.2
2018-Feb-18 03:00N 33°58' E 134°55'816.9
2018-Feb-18 02:31N 34°05' E 135°01'816.0
2018-Feb-18 02:00N 34°12' E 135°05'3 5.2
2018-Feb-18 01:29N 34°12' E 135°09'0 0.0
2018-Feb-18 00:59N 34°12' E 135°09'0 0.0
2018-Feb-18 00:29N 34°12' E 135°09'0 0.0
2018-Feb-17 23:59N 34°12' E 135°09'0 0.0
2018-Feb-17 23:29N 34°12' E 135°09'0 0.0
2018-Feb-17 22:59N 34°12' E 135°09'1 2.0
2018-Feb-17 22:30N 34°13' E 135°08'2 3.6
2018-Feb-17 21:59N 34°12' E 135°06'0 0.1
2018-Feb-17 21:29N 34°12' E 135°06'0 0.0
2018-Feb-17 20:59N 34°12' E 135°06'0 0.0
2018-Feb-17 20:29N 34°12' E 135°06'0 0.1
2018-Feb-17 19:59N 34°12' E 135°06'0 0.1
2018-Feb-17 19:29N 34°12' E 135°06'0 0.0
2018-Feb-17 18:59N 34°12' E 135°06'0 0.0
2018-Feb-17 18:29N 34°12' E 135°06'0 0.0
2018-Feb-17 17:59N 34°12' E 135°06'0 0.0
2018-Feb-17 17:29N 34°12' E 135°06'0 0.0
2018-Feb-17 16:59N 34°12' E 135°06'0 0.0
2018-Feb-17 16:29N 34°12' E 135°06'0 0.0
2018-Feb-17 15:59N 34°12' E 135°06'0 0.0
2018-Feb-17 15:29N 34°12' E 135°06'0 0.1
2018-Feb-17 14:59N 34°12' E 135°06'3 5.8
2018-Feb-17 14:30N 34°09' E 135°04'713.8
2018-Feb-17 14:01N 34°03' E 135°02'713.4
2018-Feb-17 13:31N 33°56' E 135°01'713.2
2018-Feb-17 13:00N 33°50' E 135°03'713.9
2018-Feb-17 12:30N 33°44' E 135°08'1014.2
2018-Feb-17 11:48N 33°37' E 135°17'7613.6
2018-Feb-17 06:13N 34°02' E 136°43'3613.2
2018-Feb-17 03:29N 34°37' E 136°55'816.8
2018-Feb-17 03:00N 34°43' E 136°48'816.6
2018-Feb-17 02:30N 34°51' E 136°46'815.8
2018-Feb-17 02:00N 34°59' E 136°47'3 5.1
2018-Feb-17 01:30N 35°02' E 136°47'0 0.0
2018-Feb-17 00:56N 35°02' E 136°47'0 0.0
2018-Feb-17 00:29N 35°02' E 136°47'0 0.0
2018-Feb-16 23:56N 35°02' E 136°47'0 0.0
2018-Feb-16 23:29N 35°02' E 136°47'0 0.0
2018-Feb-16 22:59N 35°02' E 136°47'0 0.0
2018-Feb-16 22:26N 35°02' E 136°47'0 0.0
2018-Feb-16 21:56N 35°02' E 136°47'0 0.0
2018-Feb-16 21:26N 35°02' E 136°47'0 0.0
2018-Feb-16 20:59N 35°02' E 136°47'0 0.0
2018-Feb-16 20:26N 35°02' E 136°47'0 0.0
2018-Feb-16 19:59N 35°02' E 136°47'0 0.0
2018-Feb-16 19:26N 35°02' E 136°47'0 0.0
2018-Feb-16 18:59N 35°02' E 136°47'0 0.0
2018-Feb-16 18:29N 35°02' E 136°47'0 0.0
2018-Feb-16 17:56N 35°02' E 136°47'0 0.0
2018-Feb-16 17:26N 35°02' E 136°47'0 0.0
2018-Feb-16 16:59N 35°02' E 136°47'0 0.8
2018-Feb-16 16:30N 35°02' E 136°48'4 7.5
2018-Feb-16 16:01N 34°58' E 136°46'815.5
2018-Feb-16 15:31N 34°50' E 136°47'815.1
2018-Feb-16 15:00N 34°43' E 136°50'714.8
2018-Feb-16 14:30N 34°37' E 136°55'713.4
2018-Feb-16 14:00N 34°33' E 137°02'713.4
2018-Feb-16 13:30N 34°33' E 137°10'815.0
2018-Feb-16 13:00N 34°33' E 137°19'2115.6
2018-Feb-16 11:39N 34°33' E 137°44'315.6
2018-Feb-16 11:27N 34°33' E 137°48'715.0
2018-Feb-16 11:00N 34°33' E 137°56'814.6
2018-Feb-16 10:29N 34°33' E 138°06'714.0
2018-Feb-16 09:58N 34°33' E 138°14'714.4
2018-Feb-16 09:30N 34°37' E 138°21'714.8
2018-Feb-16 09:00N 34°43' E 138°26'714.8
2018-Feb-16 08:30N 34°50' E 138°29'815.4
2018-Feb-16 08:00N 34°57' E 138°32'5 9.9
2018-Feb-16 07:30N 35°02' E 138°31'0 0.7
2018-Feb-16 07:00N 35°02' E 138°31'0 0.0
2018-Feb-16 06:30N 35°02' E 138°31'0 0.0
2018-Feb-16 06:00N 35°02' E 138°31'0 0.0
2018-Feb-16 05:30N 35°02' E 138°31'0 0.0
2018-Feb-16 04:54N 35°02' E 138°31'0 0.0
2018-Feb-16 04:30N 35°02' E 138°31'0 0.0
2018-Feb-16 04:00N 35°02' E 138°31'0 0.0
2018-Feb-16 03:30N 35°02' E 138°31'0 0.0
2018-Feb-16 03:00N 35°02' E 138°31'1 1.8
2018-Feb-16 02:31N 35°02' E 138°31'1 1.1
2018-Feb-16 02:01N 35°02' E 138°32'0 0.2
2018-Feb-16 01:31N 35°02' E 138°32'0 0.0
2018-Feb-16 01:00N 35°02' E 138°32'0 0.0
2018-Feb-16 00:30N 35°02' E 138°32'0 0.0
2018-Feb-16 00:00N 35°02' E 138°32'0 0.0
2018-Feb-15 23:31N 35°02' E 138°32'0 0.0
2018-Feb-15 23:00N 35°02' E 138°32'0 0.0
2018-Feb-15 22:30N 35°02' E 138°32'0 0.0
2018-Feb-15 22:00N 35°02' E 138°32'0 0.0
2018-Feb-15 21:30N 35°02' E 138°32'0 0.0
2018-Feb-15 21:00N 35°02' E 138°32'0 0.0
2018-Feb-15 20:30N 35°02' E 138°32'0 0.0
2018-Feb-15 20:01N 35°02' E 138°32'0 0.1
2018-Feb-15 19:29N 35°02' E 138°32'0 0.0
2018-Feb-15 19:01N 35°02' E 138°32'0 0.0
2018-Feb-15 18:30N 35°02' E 138°32'0 0.0
2018-Feb-15 18:00N 35°02' E 138°32'0 0.0
2018-Feb-15 17:31N 35°02' E 138°32'0 0.0
2018-Feb-15 17:00N 35°02' E 138°32'0 0.0
2018-Feb-15 16:30N 35°02' E 138°32'0 0.0
2018-Feb-15 16:00N 35°02' E 138°32'0 0.0
2018-Feb-15 15:30N 35°02' E 138°32'0 0.0
2018-Feb-15 15:01N 35°02' E 138°32'0 0.8
2018-Feb-15 14:30N 35°02' E 138°32'510.2
2018-Feb-15 14:00N 34°58' E 138°36'714.0
2018-Feb-15 13:30N 34°51' E 138°39'713.9
2018-Feb-15 13:00N 34°45' E 138°40'814.4
2018-Feb-15 12:29N 34°37' E 138°42'613.1
2018-Feb-15 12:00N 34°33' E 138°48'612.4
2018-Feb-15 11:30N 34°33' E 138°56'611.3
2018-Feb-15 11:01N 34°36' E 139°01'713.7
2018-Feb-15 10:30N 34°41' E 139°07'714.0
2018-Feb-15 10:00N 34°46' E 139°13'613.0
2018-Feb-15 09:30N 34°51' E 139°18'612.6
2018-Feb-15 09:00N 34°55' E 139°24'713.8
2018-Feb-15 08:31N 34°59' E 139°30'713.9
2018-Feb-15 08:00N 35°04' E 139°37'815.6
2018-Feb-15 07:30N 35°09' E 139°44'713.3
2018-Feb-15 07:00N 35°15' E 139°46'612.9
2018-Feb-15 06:31N 35°21' E 139°42'714.5
2018-Feb-15 06:01N 35°27' E 139°47'713.0
2018-Feb-15 05:31N 35°33' E 139°50'510.5
2018-Feb-15 05:01N 35°37' E 139°46'0 0.3
2018-Feb-15 04:27N 35°37' E 139°46'0 0.0
2018-Feb-15 03:57N 35°37' E 139°46'0 0.0
2018-Feb-15 02:48N 35°37' E 139°46'0 0.0
2018-Feb-15 01:15N 35°37' E 139°46'0 0.0
2018-Feb-15 00:51N 35°37' E 139°46'0 0.0
2018-Feb-15 00:27N 35°37' E 139°46'0 0.0
2018-Feb-14 22:57N 35°37' E 139°46'0 0.0
2018-Feb-14 22:21N 35°37' E 139°46'0 0.0
2018-Feb-14 21:58N 35°37' E 139°46'2 5.0
2018-Feb-14 21:28N 35°35' E 139°47'613.6
2018-Feb-14 21:00N 35°30' E 139°53'713.4
2018-Feb-14 20:31N 35°26' E 139°46'4 8.7
2018-Feb-14 20:00N 35°26' E 139°41'0 0.2
2018-Feb-14 19:30N 35°26' E 139°41'0 0.0
2018-Feb-14 19:00N 35°26' E 139°41'0 0.0
2018-Feb-14 18:30N 35°26' E 139°41'0 0.0
2018-Feb-14 18:00N 35°26' E 139°41'0 0.0
2018-Feb-14 17:30N 35°26' E 139°41'0 0.0
2018-Feb-14 16:57N 35°26' E 139°41'0 0.0
2018-Feb-14 16:30N 35°26' E 139°41'0 0.0
2018-Feb-14 16:00N 35°26' E 139°41'0 0.0
2018-Feb-14 15:30N 35°26' E 139°41'0 0.0
2018-Feb-14 15:00N 35°26' E 139°41'0 0.0
2018-Feb-14 14:27N 35°26' E 139°41'0 0.0
2018-Feb-14 14:00N 35°26' E 139°41'0 0.0
2018-Feb-14 13:30N 35°26' E 139°41'0 0.0
2018-Feb-14 13:00N 35°26' E 139°41'0 0.0
2018-Feb-14 12:30N 35°26' E 139°41'0 0.0
2018-Feb-14 12:00N 35°26' E 139°41'0 0.0
2018-Feb-14 11:27N 35°26' E 139°41'0 0.0
2018-Feb-14 11:00N 35°26' E 139°41'0 0.0
2018-Feb-14 10:24N 35°26' E 139°41'0 0.0
2018-Feb-14 10:00N 35°26' E 139°41'0 0.0
2018-Feb-14 09:30N 35°26' E 139°41'0 0.9
2018-Feb-14 09:01N 35°26' E 139°41'2 4.9
2018-Feb-14 08:30N 35°25' E 139°44'5 9.5
2018-Feb-14 08:01N 35°21' E 139°43'611.2
2018-Feb-14 07:30N 35°16' E 139°47'611.4
2018-Feb-14 07:00N 35°10' E 139°47'511.2
2018-Feb-14 06:30N 35°05' E 139°45'611.2
2018-Feb-14 06:00N 35°01' E 139°40'611.1
2018-Feb-14 05:30N 34°58' E 139°34'611.3
2018-Feb-14 04:59N 34°55' E 139°28'611.7
2018-Feb-14 04:28N 34°52' E 139°22'815.8
2018-Feb-14 03:59N 34°46' E 139°16'815.3
2018-Feb-14 03:28N 34°40' E 139°09'715.7
2018-Feb-14 03:00N 34°35' E 139°03'815.0
2018-Feb-14 02:30N 34°30' E 138°56'814.6
2018-Feb-14 01:56N 34°27' E 138°47'614.5
2018-Feb-14 01:29N 34°25' E 138°39'815.3
2018-Feb-14 00:59N 34°23' E 138°30'715.3
2018-Feb-14 00:31N 34°20' E 138°22'814.2
2018-Feb-13 23:56N 34°18' E 138°12'714.0
2018-Feb-13 23:25N 34°16' E 138°04'714.4
2018-Feb-13 22:55N 34°13' E 137°56'30114.0
2018-Feb-13 01:26N 33°15' E 132°01'716.6
2018-Feb-13 01:01N 33°21' E 131°57'916.4
2018-Feb-13 00:29N 33°29' E 131°53'816.1
2018-Feb-13 00:00N 33°36' E 131°48'816.2
2018-Feb-12 23:30N 33°43' E 131°44'815.0
2018-Feb-12 23:00N 33°46' E 131°36'815.9
2018-Feb-12 22:30N 33°48' E 131°26'815.6
2018-Feb-12 22:00N 33°50' E 131°17'815.3
2018-Feb-12 21:31N 33°53' E 131°09'714.5
2018-Feb-12 21:00N 33°57' E 131°02'611.3
2018-Feb-12 20:31N 33°55' E 130°56'611.8
2018-Feb-12 20:00N 33°59' E 130°50'714.4
2018-Feb-12 19:31N 34°05' E 130°45'815.5
2018-Feb-12 19:00N 34°09' E 130°38'815.4
2018-Feb-12 18:30N 34°14' E 130°30'815.6
2018-Feb-12 18:00N 34°18' E 130°23'815.7
2018-Feb-12 17:30N 34°23' E 130°15'816.0
2018-Feb-12 17:00N 34°28' E 130°07'815.9
2018-Feb-12 16:29N 34°33' E 129°59'  
2018-Feb-10 04:28N 37°41' E 122°08'715.0
2018-Feb-10 04:00N 37°41' E 121°59'815.1
2018-Feb-10 03:30N 37°41' E 121°49'815.2
2018-Feb-10 03:01N 37°41' E 121°40'714.6
2018-Feb-10 02:31N 37°39' E 121°31'611.9
2018-Feb-10 02:00N 37°35' E 121°25'2 3.4
2018-Feb-10 01:25N 37°35' E 121°23'0 0.1
2018-Feb-10 00:55N 37°35' E 121°23'0 0.0
2018-Feb-10 00:28N 37°35' E 121°23'0 0.1
2018-Feb-09 23:58N 37°35' E 121°23'0 0.1
2018-Feb-09 23:25N 37°35' E 121°23'0 0.0
2018-Feb-09 22:58N 37°35' E 121°23'0 0.1
2018-Feb-09 22:37N 37°35' E 121°23'20 2.0
2018-Feb-09 12:30N 37°54' E 121°31'815.9
2018-Feb-09 12:01N 38°01' E 121°33'  

Dump ship's entire track history